Time;durP1;ratioP1;P1;durP2;ratioP2;P2;SDS_P1;SDS_P2;PMS_P1;PMS_P2;Temp;Humidity;BMP_temperature;BMP_pressure;BME280_temperature;BME280_humidity;BME280_pressure;Samples;Min_cycle;Max_cycle;Signal;HPM_P1;HPM_P2
2022/04/04 00:02:05;;;;;;;4.50;4.18;;;6.90;91.90;;;;;;5051967;28;20585;-64
2022/04/04 00:04:32;;;;;;;4.88;4.50;;;6.90;92.00;;;;;;5041577;28;20234;-64
2022/04/04 00:07:02;;;;;;;4.72;4.32;;;6.90;91.90;;;;;;5049039;28;20232;-65
2022/04/04 00:09:29;;;;;;;4.18;3.88;;;6.90;91.90;;;;;;5051181;28;20233;-65
2022/04/04 00:11:56;;;;;;;7.35;4.88;;;6.80;91.90;;;;;;5051697;28;20287;-65
2022/04/04 00:14:24;;;;;;;6.75;4.95;;;6.80;92.10;;;;;;5051327;28;20229;-65
2022/04/04 00:16:51;;;;;;;12.88;9.00;;;6.80;92.20;;;;;;5052166;28;20229;-63
2022/04/04 00:19:18;;;;;;;5.30;4.80;;;6.70;92.10;;;;;;5052463;28;20564;-64
2022/04/04 00:21:45;;;;;;;4.88;4.45;;;6.70;92.20;;;;;;5051761;28;20229;-65
2022/04/04 00:24:12;;;;;;;4.28;3.95;;;6.70;92.20;;;;;;5052204;28;20225;-64
2022/04/04 00:26:39;;;;;;;3.88;3.55;;;6.70;92.20;;;;;;5050225;28;20679;-65
2022/04/04 00:29:06;;;;;;;4.78;4.28;;;6.70;92.30;;;;;;5051026;28;20232;-65
2022/04/04 00:31:34;;;;;;;5.47;4.60;;;6.70;92.40;;;;;;5050766;28;20933;-64
2022/04/04 00:34:01;;;;;;;11.40;6.35;;;6.70;92.50;;;;;;5051170;28;20228;-64
2022/04/04 00:36:28;;;;;;;4.40;4.00;;;6.70;92.40;;;;;;5050950;28;20232;-65
2022/04/04 00:38:54;;;;;;;4.43;3.92;;;6.70;92.50;;;;;;5051489;28;20229;-65
2022/04/04 00:41:21;;;;;;;4.53;3.80;;;6.70;92.60;;;;;;5051980;28;20239;-64
2022/04/04 00:43:52;;;;;;;5.80;5.22;;;6.70;92.70;;;;;;5052605;28;20683;-64
2022/04/04 00:46:19;;;;;;;4.88;4.35;;;6.70;92.70;;;;;;5052409;28;20706;-64
2022/04/04 00:48:47;;;;;;;4.38;3.97;;;6.80;92.50;;;;;;5052848;28;20695;-64
2022/04/04 00:51:14;;;;;;;4.15;3.75;;;6.80;92.50;;;;;;5052045;28;20325;-64
2022/04/04 00:53:41;;;;;;;6.00;4.85;;;6.80;92.60;;;;;;5052531;28;20233;-64
2022/04/04 00:56:11;;;;;;;4.68;4.28;;;6.80;92.70;;;;;;5052697;28;20679;-65
2022/04/04 00:58:44;;;;;;;5.60;5.05;;;6.80;92.60;;;;;;5052340;28;20221;-64
2022/04/04 01:01:10;;;;;;;7.00;4.80;;;6.80;92.70;;;;;;5052443;28;20228;-65
2022/04/04 01:03:41;;;;;;;4.55;4.15;;;6.80;92.70;;;;;;5052065;28;20221;-64
2022/04/04 01:06:09;;;;;;;11.52;9.02;;;6.80;92.80;;;;;;5052458;28;20225;-64
2022/04/04 01:08:41;;;;;;;6.63;6.00;;;6.70;92.70;;;;;;5052054;28;20229;-64
2022/04/04 01:11:10;;;;;;;6.75;6.15;;;6.70;92.80;;;;;;5052440;28;20599;-64
2022/04/04 01:13:36;;;;;;;6.35;5.85;;;6.70;92.90;;;;;;5052005;28;20666;-64
2022/04/04 01:16:04;;;;;;;7.10;5.95;;;6.70;93.00;;;;;;5052378;28;20228;-64
2022/04/04 01:18:31;;;;;;;9.88;7.43;;;6.70;93.00;;;;;;5052043;28;20228;-65
2022/04/04 01:20:57;;;;;;;6.80;6.00;;;6.70;92.80;;;;;;5052363;28;20563;-65
2022/04/04 01:23:26;;;;;;;5.78;5.25;;;6.80;92.70;;;;;;5051936;28;20229;-64
2022/04/04 01:25:54;;;;;;;4.40;4.00;;;6.70;92.60;;;;;;5052291;28;20240;-64
2022/04/04 01:28:21;;;;;;;6.57;4.70;;;6.70;92.70;;;;;;5051785;28;20714;-65
2022/04/04 01:30:52;;;;;;;5.53;5.03;;;6.70;92.70;;;;;;5052129;28;20244;-64
2022/04/04 01:33:19;;;;;;;6.00;5.60;;;6.70;92.60;;;;;;5055111;28;20287;-64
2022/04/04 01:35:46;;;;;;;5.68;5.07;;;6.70;92.70;;;;;;5055983;28;20228;-64
2022/04/04 01:38:13;;;;;;;6.40;5.45;;;6.70;92.70;;;;;;5056078;28;20236;-65
2022/04/04 01:40:40;;;;;;;5.50;5.10;;;6.60;92.70;;;;;;5055616;28;20239;-64
2022/04/04 01:43:09;;;;;;;5.53;5.03;;;6.60;92.70;;;;;;5055990;28;20698;-64
2022/04/04 01:48:20;;;;;;;5.55;5.05;;;6.60;92.80;;;;;;5055482;28;20351;-64
2022/04/04 01:50:47;;;;;;;5.80;5.22;;;6.60;92.80;;;;;;5055728;28;20687;-64
2022/04/04 01:53:30;;;;;;;6.20;5.60;;;6.60;92.90;;;;;;5055821;28;20239;-65
2022/04/04 01:56:00;;;;;;;6.43;5.90;;;6.60;92.80;;;;;;5056152;28;20224;-65
2022/04/04 01:58:29;;;;;;;6.03;5.53;;;6.60;92.60;;;;;;5055640;28;21268;-65
2022/04/04 02:00:57;;;;;;;6.47;5.07;;;6.60;92.60;;;;;;5055726;28;20240;-65
2022/04/04 02:03:24;;;;;;;10.18;6.03;;;6.60;92.70;;;;;;5055134;28;20294;-65
2022/04/04 02:05:51;;;;;;;6.30;5.70;;;6.50;92.70;;;;;;5055712;28;20239;-65
2022/04/04 02:08:18;;;;;;;6.00;5.40;;;6.60;92.70;;;;;;5055361;28;20221;-65
2022/04/04 02:10:45;;;;;;;5.95;5.45;;;6.60;92.80;;;;;;5055466;28;20233;-64
2022/04/04 02:13:12;;;;;;;9.20;6.43;;;6.50;93.20;;;;;;5055198;28;20240;-65
2022/04/04 02:15:41;;;;;;;7.50;6.75;;;6.50;92.90;;;;;;5055473;28;20227;-64
2022/04/04 02:18:08;;;;;;;6.85;6.25;;;6.50;92.90;;;;;;5054970;28;20231;-65
2022/04/04 02:20:34;;;;;;;7.07;6.55;;;6.50;93.10;;;;;;5055534;28;20241;-65
2022/04/04 02:23:01;;;;;;;6.95;6.25;;;6.50;93.20;;;;;;5055245;28;20236;-63
2022/04/04 02:25:28;;;;;;;6.65;5.68;;;6.50;93.20;;;;;;5054676;28;20308;-64
2022/04/04 02:27:55;;;;;;;6.35;5.75;;;6.40;93.40;;;;;;5055331;28;20698;-65
2022/04/04 02:30:22;;;;;;;7.20;6.20;;;6.50;93.20;;;;;;5054462;28;20235;-64
2022/04/04 02:32:50;;;;;;;7.30;6.60;;;6.50;93.30;;;;;;5055050;28;20236;-64
2022/04/04 02:35:17;;;;;;;7.82;7.10;;;6.50;93.20;;;;;;5054812;28;20287;-64
2022/04/04 02:37:44;;;;;;;7.20;6.43;;;6.50;93.10;;;;;;5054998;28;20224;-64
2022/04/04 02:40:11;;;;;;;7.45;6.75;;;6.50;93.20;;;;;;5054478;28;20249;-66
2022/04/04 02:42:38;;;;;;;6.05;5.40;;;6.50;93.20;;;;;;5054739;28;20217;-64
2022/04/04 02:45:06;;;;;;;6.88;6.25;;;6.50;93.20;;;;;;5054107;28;20562;-65
2022/04/04 02:47:33;;;;;;;6.35;5.75;;;6.50;93.30;;;;;;5054569;28;20247;-65
2022/04/04 02:50:01;;;;;;;6.93;6.30;;;6.40;93.40;;;;;;5054796;28;20225;-64
2022/04/04 02:52:28;;;;;;;7.88;6.57;;;6.40;93.40;;;;;;5054216;28;20646;-64
2022/04/04 02:54:55;;;;;;;7.43;6.72;;;6.50;93.30;;;;;;5054621;28;20709;-64
2022/04/04 02:57:21;;;;;;;6.95;6.45;;;6.40;93.30;;;;;;5054380;28;20229;-64
2022/04/04 02:59:48;;;;;;;7.00;6.40;;;6.40;93.30;;;;;;5054566;28;20225;-65
2022/04/04 03:02:15;;;;;;;6.72;6.13;;;6.40;93.30;;;;;;5054022;28;20624;-64
2022/04/04 03:04:42;;;;;;;8.50;7.60;;;6.40;93.40;;;;;;5054590;28;20221;-65
2022/04/04 03:07:11;;;;;;;8.27;7.57;;;6.40;93.50;;;;;;5054387;28;20553;-65
2022/04/04 03:09:38;;;;;;;7.70;6.63;;;6.40;93.50;;;;;;5054215;28;21022;-65
2022/04/04 03:12:07;;;;;;;8.90;8.10;;;6.40;93.50;;;;;;5054078;28;20233;-65
2022/04/04 03:14:34;;;;;;;7.15;5.75;;;6.40;93.60;;;;;;5053854;28;20222;-64
2022/04/04 03:17:01;;;;;;;8.93;6.10;;;6.40;93.60;;;;;;5054173;28;20224;-65
2022/04/04 03:19:28;;;;;;;7.20;6.60;;;6.40;93.70;;;;;;5053840;28;20225;-64
2022/04/04 03:22:00;;;;;;;6.53;5.93;;;6.30;93.70;;;;;;5054018;28;20691;-65
2022/04/04 03:24:28;;;;;;;7.18;6.45;;;6.40;93.80;;;;;;5053706;28;20308;-65
2022/04/04 03:26:55;;;;;;;7.18;6.57;;;6.40;93.80;;;;;;5054010;28;20312;-64
2022/04/04 03:29:21;;;;;;;6.90;6.20;;;6.40;93.80;;;;;;5053588;28;20216;-64
2022/04/04 03:31:48;;;;;;;7.57;6.88;;;6.40;93.80;;;;;;5053847;28;20230;-64
2022/04/04 03:34:15;;;;;;;7.50;6.80;;;6.40;93.90;;;;;;5053435;28;20572;-64
2022/04/04 03:36:42;;;;;;;9.40;6.97;;;6.30;93.80;;;;;;5053951;28;20228;-63
2022/04/04 03:39:12;;;;;;;6.03;5.43;;;6.40;93.90;;;;;;5053882;28;20220;-64
2022/04/04 03:41:41;;;;;;;6.50;5.90;;;6.40;93.90;;;;;;5053306;28;20729;-64
2022/04/04 03:44:08;;;;;;;8.68;6.68;;;6.40;93.90;;;;;;5053709;28;20259;-65
2022/04/04 03:46:35;;;;;;;7.88;6.45;;;6.40;94.20;;;;;;5053216;28;20232;-64
2022/04/04 03:49:01;;;;;;;6.95;6.35;;;6.40;93.80;;;;;;5053683;28;20221;-65
2022/04/04 03:51:28;;;;;;;7.00;6.30;;;6.50;93.80;;;;;;5052979;28;20237;-64
2022/04/04 03:53:55;;;;;;;7.00;6.32;;;6.50;93.80;;;;;;5053752;28;20229;-64
2022/04/04 03:56:22;;;;;;;6.57;6.00;;;6.50;93.70;;;;;;5052785;28;20567;-64
2022/04/04 03:58:52;;;;;;;6.03;5.53;;;6.50;93.70;;;;;;5053581;28;20231;-64
2022/04/04 04:01:19;;;;;;;6.68;6.07;;;6.50;93.90;;;;;;5053036;28;20547;-64
2022/04/04 04:03:46;;;;;;;6.05;5.55;;;6.40;93.60;;;;;;5053313;28;20233;-64
2022/04/04 04:06:14;;;;;;;7.40;6.72;;;6.40;93.60;;;;;;5053366;28;20248;-65
2022/04/04 04:08:43;;;;;;;7.28;5.40;;;6.40;93.60;;;;;;5052909;28;20244;-64
2022/04/04 04:11:09;;;;;;;5.70;5.30;;;6.50;93.70;;;;;;5053097;28;20229;-64
2022/04/04 04:13:37;;;;;;;5.90;5.35;;;6.40;93.70;;;;;;5052918;28;20561;-64
2022/04/04 04:16:07;;;;;;;5.22;4.82;;;6.50;93.70;;;;;;5053374;28;20223;-64
2022/04/04 04:18:34;;;;;;;6.47;5.85;;;6.40;93.80;;;;;;5052767;28;20340;-64
2022/04/04 04:21:02;;;;;;;6.68;6.03;;;6.50;93.70;;;;;;5053014;28;20221;-64
2022/04/04 04:23:29;;;;;;;6.80;6.20;;;6.40;93.70;;;;;;5052676;28;20240;-64
2022/04/04 04:25:56;;;;;;;5.10;4.70;;;6.50;93.70;;;;;;5052919;28;20290;-64
2022/04/04 04:28:23;;;;;;;7.32;6.03;;;6.50;93.70;;;;;;5052748;28;20232;-64
2022/04/04 04:30:50;;;;;;;8.25;5.72;;;6.40;93.70;;;;;;5052847;28;20229;-64
2022/04/04 04:33:18;;;;;;;6.20;5.45;;;6.40;93.70;;;;;;5052839;28;20319;-64
2022/04/04 04:35:46;;;;;;;7.38;6.68;;;6.40;93.70;;;;;;5052774;28;20852;-64
2022/04/04 04:38:13;;;;;;;5.68;5.18;;;6.40;93.70;;;;;;5052790;28;20216;-64
2022/04/04 04:40:40;;;;;;;6.20;5.60;;;6.40;93.70;;;;;;5052224;28;20586;-64
2022/04/04 04:43:07;;;;;;;5.13;4.75;;;6.30;93.70;;;;;;5052924;28;20248;-64
2022/04/04 04:45:34;;;;;;;5.20;4.47;;;6.40;93.80;;;;;;5052328;28;20229;-64
2022/04/04 04:48:01;;;;;;;6.50;5.88;;;6.40;93.80;;;;;;5052803;28;20231;-64
2022/04/04 04:50:30;;;;;;;5.35;4.82;;;6.40;93.80;;;;;;5052166;28;20675;-64
2022/04/04 04:52:57;;;;;;;6.90;6.30;;;6.40;93.70;;;;;;5052771;28;20221;-64
2022/04/04 04:55:26;;;;;;;5.78;5.07;;;6.30;93.70;;;;;;5052217;28;20221;-65
2022/04/04 04:57:54;;;;;;;6.85;5.00;;;6.30;93.80;;;;;;5052727;28;20240;-65
2022/04/04 05:00:27;;;;;;;5.60;5.20;;;6.30;94.00;;;;;;5052389;28;20213;-65
2022/04/04 05:05:37;;;;;;;5.97;5.47;;;6.30;93.90;;;;;;5051782;28;20216;-64
2022/04/04 05:08:04;;;;;;;6.05;5.55;;;6.30;94.10;;;;;;5055600;28;20216;-64
2022/04/04 05:10:30;;;;;;;6.20;5.68;;;6.30;94.10;;;;;;5056048;28;20228;-63
2022/04/04 05:12:57;;;;;;;6.13;5.63;;;6.30;94.00;;;;;;5056615;28;20564;-64
2022/04/04 05:15:24;;;;;;;5.88;5.15;;;6.30;94.10;;;;;;5056639;28;20220;-64
2022/04/04 05:17:52;;;;;;;5.95;5.45;;;6.30;94.00;;;;;;5055919;28;20225;-64
2022/04/04 05:20:19;;;;;;;5.90;5.15;;;6.30;94.00;;;;;;5056336;28;20220;-65
2022/04/04 05:22:47;;;;;;;5.78;5.28;;;6.30;94.00;;;;;;5056249;28;20229;-65
2022/04/04 05:25:14;;;;;;;5.93;5.43;;;6.30;94.10;;;;;;5056368;28;20232;-65
2022/04/04 05:27:41;;;;;;;5.80;5.40;;;6.30;94.20;;;;;;5055685;28;20224;-65
2022/04/04 05:30:09;;;;;;;5.65;5.15;;;6.30;94.00;;;;;;5056451;28;20224;-65
2022/04/04 05:32:36;;;;;;;6.70;6.10;;;6.40;94.10;;;;;;5055576;28;20233;-65
2022/04/04 05:35:05;;;;;;;6.10;5.60;;;6.40;94.00;;;;;;5056443;28;20248;-65
2022/04/04 05:37:32;;;;;;;5.88;5.47;;;6.50;94.10;;;;;;5055879;28;20583;-65
2022/04/04 05:40:01;;;;;;;6.65;5.93;;;6.50;93.80;;;;;;5056150;28;20221;-65
2022/04/04 05:42:29;;;;;;;6.18;5.00;;;6.50;93.60;;;;;;5056025;28;20303;-65
2022/04/04 05:44:56;;;;;;;7.68;5.95;;;6.50;93.70;;;;;;5055728;28;20221;-65
2022/04/04 05:47:23;;;;;;;7.15;6.47;;;6.50;93.50;;;;;;5055898;28;20221;-65
2022/04/04 05:49:50;;;;;;;6.38;5.78;;;6.60;93.60;;;;;;5055592;28;20709;-66
2022/04/04 05:52:17;;;;;;;6.90;5.88;;;6.60;93.50;;;;;;5055717;28;20698;-64
2022/04/04 05:54:54;;;;;;;7.47;6.65;;;6.70;93.40;;;;;;5055494;28;20233;-64
2022/04/04 05:57:23;;;;;;;6.53;5.93;;;6.60;92.90;;;;;;5055836;28;20220;-65
2022/04/04 05:59:50;;;;;;;5.80;5.20;;;6.70;92.90;;;;;;5055476;28;20229;-65
2022/04/04 06:02:17;;;;;;;6.15;5.65;;;6.60;92.90;;;;;;5055575;28;20233;-65
2022/04/04 06:04:44;;;;;;;7.13;6.55;;;6.70;93.10;;;;;;5055277;28;20225;-66
2022/04/04 06:07:11;;;;;;;9.35;7.10;;;6.70;93.00;;;;;;5055782;28;20221;-65
2022/04/04 06:09:37;;;;;;;11.20;7.00;;;6.80;93.10;;;;;;5055211;28;20221;-64
2022/04/04 06:12:05;;;;;;;7.28;6.22;;;6.80;92.80;;;;;;5055461;28;20252;-65
2022/04/04 06:14:34;;;;;;;7.53;6.88;;;6.80;92.60;;;;;;5055571;28;20220;-65
2022/04/04 06:17:00;;;;;;;7.55;6.95;;;6.90;92.50;;;;;;5055055;28;20217;-65
2022/04/04 06:19:28;;;;;;;7.80;7.03;;;6.90;92.50;;;;;;5055367;28;20563;-64
2022/04/04 06:22:01;;;;;;;7.47;6.78;;;7.00;92.40;;;;;;5054826;28;20279;-64
2022/04/04 06:24:28;;;;;;;8.05;7.25;;;7.10;92.40;;;;;;5055229;28;20213;-65
2022/04/04 06:26:55;;;;;;;7.65;6.95;;;7.20;92.20;;;;;;5054696;28;20233;-64
2022/04/04 06:29:22;;;;;;;8.25;7.47;;;7.30;92.10;;;;;;5055337;28;20625;-63
2022/04/04 06:31:52;;;;;;;8.25;7.43;;;7.40;91.80;;;;;;5054534;28;20336;-65
2022/04/04 06:34:19;;;;;;;7.88;7.18;;;7.40;91.60;;;;;;5055113;28;20221;-64
2022/04/04 06:36:47;;;;;;;8.13;7.43;;;7.50;91.30;;;;;;5054650;28;20312;-64
2022/04/04 06:39:14;;;;;;;10.10;9.00;;;7.60;91.40;;;;;;5054970;28;20225;-64
2022/04/04 06:41:41;;;;;;;8.90;8.00;;;7.60;91.10;;;;;;5054549;28;20228;-64
2022/04/04 06:44:08;;;;;;;8.27;7.47;;;7.70;91.00;;;;;;5054887;28;20216;-65
2022/04/04 06:46:36;;;;;;;9.07;8.23;;;7.70;90.90;;;;;;5054763;28;20235;-65
2022/04/04 06:49:05;;;;;;;7.82;7.03;;;7.80;90.80;;;;;;5054645;28;20223;-64
2022/04/04 06:51:32;;;;;;;9.07;8.35;;;7.90;90.40;;;;;;5054624;28;20236;-64
2022/04/04 06:53:59;;;;;;;9.85;8.45;;;7.90;90.10;;;;;;5054259;28;20228;-64
2022/04/04 06:56:26;;;;;;;7.60;6.90;;;8.00;90.10;;;;;;5054856;28;20567;-65
2022/04/04 06:58:53;;;;;;;8.45;7.65;;;8.00;90.00;;;;;;5054060;28;20224;-64
2022/04/04 07:01:19;;;;;;;7.60;6.90;;;8.10;89.70;;;;;;5054447;28;20588;-64
2022/04/04 07:03:46;;;;;;;9.00;8.20;;;8.10;89.10;;;;;;5054164;28;20327;-64
2022/04/04 07:06:15;;;;;;;9.85;8.45;;;8.10;88.90;;;;;;5054494;28;20213;-64
2022/04/04 07:08:42;;;;;;;9.45;8.65;;;8.00;88.60;;;;;;5054025;28;20224;-64
2022/04/04 07:11:10;;;;;;;8.13;7.53;;;8.10;88.70;;;;;;5054220;28;20228;-64
2022/04/04 07:13:37;;;;;;;9.20;8.30;;;8.10;88.10;;;;;;5054239;28;20228;-64
2022/04/04 07:16:04;;;;;;;10.48;9.57;;;8.10;87.80;;;;;;5053900;28;20659;-64
2022/04/04 07:18:31;;;;;;;11.65;10.48;;;8.00;87.40;;;;;;5054169;28;20228;-65
2022/04/04 07:20:58;;;;;;;11.25;10.15;;;8.10;87.80;;;;;;5053573;28;20233;-65
2022/04/04 07:23:26;;;;;;;11.20;10.20;;;8.20;87.50;;;;;;5054135;28;20225;-65
2022/04/04 07:25:53;;;;;;;13.25;10.30;;;8.20;87.40;;;;;;5053635;28;20571;-64
2022/04/04 07:28:21;;;;;;;12.50;10.85;;;8.30;86.90;;;;;;5053953;28;20221;-64
2022/04/04 07:30:49;;;;;;;11.02;10.02;;;8.30;86.70;;;;;;5053029;28;20566;-64
2022/04/04 07:33:18;;;;;;;9.88;8.98;;;8.40;86.50;;;;;;5054025;28;20318;-64
2022/04/04 07:35:45;;;;;;;11.70;10.60;;;8.50;86.30;;;;;;5053425;28;20229;-64
2022/04/04 07:38:13;;;;;;;10.95;9.57;;;8.40;85.20;;;;;;5053965;28;20706;-64
2022/04/04 07:40:41;;;;;;;10.02;9.13;;;8.50;85.50;;;;;;5053882;28;20244;-65
2022/04/04 07:43:08;;;;;;;14.23;10.70;;;8.50;85.30;;;;;;5053585;28;20970;-65
2022/04/04 07:45:35;;;;;;;11.10;10.10;;;8.50;84.60;;;;;;5053865;28;20560;-64
2022/04/04 07:48:03;;;;;;;11.18;10.18;;;8.50;85.00;;;;;;5053182;28;20224;-64
2022/04/04 07:50:31;;;;;;;10.77;9.88;;;8.60;84.20;;;;;;5053630;28;20286;-65
2022/04/04 07:52:58;;;;;;;11.23;10.13;;;8.60;84.10;;;;;;5053224;28;20322;-65
2022/04/04 07:55:25;;;;;;;13.05;10.35;;;8.60;83.30;;;;;;5053705;28;20228;-65
2022/04/04 07:57:53;;;;;;;10.77;9.75;;;8.50;82.40;;;;;;5053048;28;20228;-65
2022/04/04 08:00:21;;;;;;;10.07;9.18;;;8.50;83.00;;;;;;5053645;28;20221;-64
2022/04/04 08:02:48;;;;;;;11.95;9.65;;;8.50;82.70;;;;;;5052848;28;20573;-66
2022/04/04 08:05:16;;;;;;;11.43;10.32;;;8.60;83.10;;;;;;5053397;28;20227;-65
2022/04/04 08:07:47;;;;;;;11.63;10.48;;;8.70;82.20;;;;;;5053330;28;20221;-65
2022/04/04 08:10:14;;;;;;;11.00;10.05;;;8.70;81.90;;;;;;5053084;28;20369;-64
2022/04/04 08:12:41;;;;;;;16.83;10.70;;;8.70;81.90;;;;;;5052949;28;20251;-65
2022/04/04 08:15:10;;;;;;;11.48;10.38;;;8.70;80.90;;;;;;5052803;28;20561;-66
2022/04/04 08:17:37;;;;;;;11.73;10.27;;;8.60;80.40;;;;;;5053072;28;20235;-64
2022/04/04 08:20:05;;;;;;;11.57;9.98;;;8.60;80.60;;;;;;5052498;28;20236;-64
2022/04/04 08:22:42;;;;;;;11.93;10.70;;;8.70;81.10;;;;;;5052967;28;20225;-65
2022/04/04 08:25:10;;;;;;;11.50;10.32;;;8.80;80.80;;;;;;5052753;28;20263;-65
2022/04/04 08:27:37;;;;;;;11.13;9.85;;;8.80;80.10;;;;;;5052827;28;20323;-65
2022/04/04 08:30:05;;;;;;;10.98;9.02;;;8.80;80.00;;;;;;5052452;28;20232;-65
2022/04/04 08:32:36;;;;;;;10.25;9.25;;;8.90;78.90;;;;;;5052733;28;20295;-64
2022/04/04 08:35:04;;;;;;;9.30;8.40;;;9.00;79.30;;;;;;5052336;28;20311;-65
2022/04/04 08:37:31;;;;;;;14.13;9.10;;;9.10;80.00;;;;;;5052664;28;20224;-64
2022/04/04 08:39:58;;;;;;;10.32;9.48;;;9.10;78.40;;;;;;5052555;28;20224;-64
2022/04/04 08:42:27;;;;;;;10.38;9.43;;;9.10;76.90;;;;;;5051620;28;20229;-65
2022/04/04 08:44:56;;;;;;;12.07;9.88;;;9.10;76.80;;;;;;5052323;28;20308;-66
2022/04/04 08:47:23;;;;;;;12.77;11.25;;;9.10;76.70;;;;;;5052752;28;20220;-65
2022/04/04 08:49:52;;;;;;;11.57;9.93;;;9.20;77.10;;;;;;5052607;28;20598;-65
2022/04/04 08:52:18;;;;;;;10.30;9.05;;;9.20;76.30;;;;;;5052173;28;20231;-65
2022/04/04 08:54:45;;;;;;;16.45;9.55;;;9.20;76.10;;;;;;5052678;28;20682;-64
2022/04/04 08:57:12;;;;;;;9.93;8.93;;;9.20;75.90;;;;;;5052077;28;20216;-65
2022/04/04 08:59:39;;;;;;;10.40;9.32;;;9.20;75.20;;;;;;5052533;28;20225;-65
2022/04/04 09:02:06;;;;;;;8.32;7.60;;;9.20;75.40;;;;;;5052050;28;20225;-65
2022/04/04 09:04:34;;;;;;;11.15;8.77;;;9.20;75.20;;;;;;5052512;28;20220;-65
2022/04/04 09:07:07;;;;;;;14.00;9.00;;;9.30;75.50;;;;;;5052157;28;20228;-65
2022/04/04 09:09:41;;;;;;;9.85;8.75;;;9.30;75.40;;;;;;5052482;28;20220;-64
2022/04/04 09:12:10;;;;;;;8.73;8.02;;;9.30;73.70;;;;;;5051789;28;20223;-64
2022/04/04 09:14:43;;;;;;;8.68;7.90;;;9.30;73.60;;;;;;5052529;28;20603;-65
2022/04/04 09:17:10;;;;;;;9.43;8.57;;;9.20;73.80;;;;;;5052007;28;20224;-64
2022/04/04 09:19:38;;;;;;;9.40;7.55;;;9.30;73.70;;;;;;5052384;28;20315;-65
2022/04/04 09:22:08;;;;;;;9.13;8.00;;;9.30;73.40;;;;;;5051751;28;20235;-65
2022/04/04 09:24:46;;;;;;;8.30;7.50;;;9.30;73.20;;;;;;5052525;28;20678;-66
2022/04/04 09:27:14;;;;;;;11.60;7.95;;;9.30;72.90;;;;;;5051802;28;20228;-64
2022/04/04 09:29:43;;;;;;;13.00;8.43;;;9.40;72.90;;;;;;5052335;28;20225;-64
2022/04/04 09:32:12;;;;;;;9.18;7.53;;;9.30;72.80;;;;;;5051721;28;20291;-66
2022/04/04 09:34:53;;;;;;;12.30;10.48;;;9.40;72.70;;;;;;5050777;28;20224;-65
2022/04/04 09:37:22;;;;;;;11.80;10.13;;;9.40;72.00;;;;;;5042107;28;20225;-65
2022/04/04 09:39:50;;;;;;;12.45;9.95;;;9.40;71.60;;;;;;5043202;28;20229;-65
2022/04/04 09:42:17;;;;;;;11.00;9.90;;;9.40;70.80;;;;;;5031868;28;20221;-65
2022/04/04 09:44:57;;;;;;;10.52;9.43;;;9.40;71.60;;;;;;5046542;28;20228;-63
2022/04/04 09:47:44;;;;;;;12.20;10.93;;;9.40;71.60;;;;;;5051873;28;20222;-63
2022/04/04 09:50:11;;;;;;;11.52;9.38;;;9.50;71.20;;;;;;5051758;28;20564;-64
2022/04/04 09:52:52;;;;;;;9.75;8.75;;;9.60;70.70;;;;;;5043423;28;20233;-64
2022/04/04 09:55:28;;;;;;;8.80;8.00;;;9.60;70.30;;;;;;5050984;28;20224;-64
2022/04/04 09:57:56;;;;;;;9.85;8.85;;;9.70;70.70;;;;;;5055597;28;20228;-65
2022/04/04 10:00:23;;;;;;;12.55;9.75;;;9.80;70.60;;;;;;5055148;28;20220;-65
2022/04/04 10:02:51;;;;;;;9.90;8.88;;;10.00;69.80;;;;;;5055170;28;20228;-65
2022/04/04 10:05:19;;;;;;;9.93;8.57;;;10.10;70.20;;;;;;5055267;28;20229;-65
2022/04/04 10:07:47;;;;;;;9.73;8.77;;;10.20;68.20;;;;;;5055554;28;20283;-64
2022/04/04 10:10:16;;;;;;;15.18;9.93;;;10.30;68.40;;;;;;5055006;28;20272;-65
2022/04/04 10:12:44;;;;;;;9.82;8.85;;;10.40;67.60;;;;;;5055530;28;20229;-64
2022/04/04 10:15:11;;;;;;;12.90;9.35;;;10.50;67.30;;;;;;5054959;28;20537;-64
2022/04/04 10:17:38;;;;;;;12.98;9.55;;;10.50;66.30;;;;;;5055457;28;20562;-65
2022/04/04 10:20:07;;;;;;;9.75;8.60;;;10.70;66.30;;;;;;5055074;28;20225;-64
2022/04/04 10:22:35;;;;;;;14.73;10.77;;;10.80;65.80;;;;;;5055185;28;20221;-65
2022/04/04 10:25:03;;;;;;;13.95;10.10;;;10.80;63.80;;;;;;5054878;28;20225;-64
2022/04/04 10:27:31;;;;;;;9.75;8.45;;;10.70;63.70;;;;;;5055119;28;20308;-65
2022/04/04 10:30:03;;;;;;;17.45;12.95;;;10.60;63.70;;;;;;5055131;28;20229;-64
2022/04/04 10:32:30;;;;;;;13.07;10.65;;;10.60;64.50;;;;;;5054594;28;20244;-64
2022/04/04 10:34:58;;;;;;;9.93;9.05;;;10.70;64.80;;;;;;5055143;28;20222;-64
2022/04/04 10:37:29;;;;;;;9.75;8.75;;;10.60;64.00;;;;;;5054649;28;20231;-64
2022/04/04 10:39:57;;;;;;;11.10;9.82;;;10.50;63.90;;;;;;5055055;28;20331;-64
2022/04/04 10:42:26;;;;;;;10.52;8.88;;;10.50;64.00;;;;;;5054523;28;20221;-65
2022/04/04 10:45:00;;;;;;;13.50;10.18;;;10.40;63.70;;;;;;5054939;28;20233;-64
2022/04/04 10:47:29;;;;;;;12.10;9.02;;;10.40;63.90;;;;;;5054358;28;20232;-64
2022/04/04 10:49:56;;;;;;;10.90;10.00;;;10.40;64.10;;;;;;5054866;28;20228;-63
2022/04/04 10:52:39;;;;;;;13.05;10.82;;;10.40;64.10;;;;;;5054290;28;20240;-64
2022/04/04 10:55:40;;;;;;;17.40;15.63;;;10.40;63.90;;;;;;5054800;28;20224;-65
2022/04/04 10:58:12;;;;;;;15.43;9.65;;;10.50;64.00;;;;;;5052446;28;20229;-65
2022/04/04 11:01:07;;;;;;;9.77;8.77;;;10.50;63.60;;;;;;5054696;28;20256;-64
2022/04/04 11:03:39;;;;;;;11.95;8.63;;;10.30;62.80;;;;;;5054483;28;20266;-64
2022/04/04 11:09:19;;;;;;;8.73;7.82;;;10.20;62.90;;;;;;5054217;28;20239;-65
2022/04/04 11:11:48;;;;;;;10.40;8.00;;;10.20;62.10;;;;;;5051434;28;20225;-64
2022/04/04 11:14:16;;;;;;;13.45;8.82;;;10.20;61.40;;;;;;5054420;28;20229;-64
2022/04/04 11:17:23;;;;;;;10.05;7.45;;;10.10;61.40;;;;;;5053793;28;20236;-65
2022/04/04 11:19:51;;;;;;;9.98;6.80;;;10.10;60.80;;;;;;5053903;28;20413;-64
2022/04/04 11:22:20;;;;;;;13.52;6.90;;;10.10;61.40;;;;;;5054178;28;20302;-65
2022/04/04 11:24:51;;;;;;;9.20;7.10;;;10.10;61.10;;;;;;5053813;28;20251;-65
2022/04/04 11:27:18;;;;;;;9.50;8.05;;;10.20;61.60;;;;;;5053843;28;20320;-65
2022/04/04 11:29:45;;;;;;;7.85;7.15;;;10.30;61.90;;;;;;5053699;28;20298;-64
2022/04/04 11:32:16;;;;;;;8.88;7.97;;;10.30;61.20;;;;;;5053874;28;20224;-65
2022/04/04 11:34:45;;;;;;;9.13;7.88;;;10.40;60.70;;;;;;5053415;28;20283;-65
2022/04/04 11:37:19;;;;;;;9.40;6.90;;;10.50;61.00;;;;;;5053913;28;20221;-64
2022/04/04 11:39:47;;;;;;;7.72;7.07;;;10.50;60.20;;;;;;5053652;28;20220;-65
2022/04/04 11:42:14;;;;;;;10.80;8.05;;;10.50;60.60;;;;;;5053745;28;20694;-65
2022/04/04 11:44:48;;;;;;;8.88;6.72;;;10.60;61.30;;;;;;5053283;28;20228;-64
2022/04/04 11:47:17;;;;;;;11.45;7.03;;;10.70;60.90;;;;;;5053681;28;20221;-64
2022/04/04 11:49:46;;;;;;;9.50;6.28;;;10.70;61.70;;;;;;5053386;28;20275;-64
2022/04/04 11:52:18;;;;;;;8.70;5.63;;;10.70;61.70;;;;;;5053656;28;20290;-64
2022/04/04 11:54:48;;;;;;;9.23;5.70;;;10.70;62.10;;;;;;5052972;28;20595;-65
2022/04/04 11:57:15;;;;;;;8.52;7.57;;;10.70;62.30;;;;;;5053597;28;20226;-65
2022/04/04 11:59:43;;;;;;;6.43;5.65;;;10.80;63.00;;;;;;5053161;28;20236;-65
2022/04/04 12:02:11;;;;;;;9.20;6.43;;;10.80;63.10;;;;;;5053278;28;20886;-64
2022/04/04 12:04:39;;;;;;;11.60;5.93;;;10.80;64.00;;;;;;5053012;28;20228;-64
2022/04/04 12:07:09;;;;;;;11.45;4.72;;;10.70;65.10;;;;;;5053475;28;20228;-65
2022/04/04 12:09:37;;;;;;;12.65;5.22;;;10.60;65.10;;;;;;5052916;28;20772;-65
2022/04/04 12:12:06;;;;;;;7.53;5.07;;;10.40;66.00;;;;;;5053343;28;20239;-64
2022/04/04 12:14:34;;;;;;;6.60;4.90;;;10.40;67.10;;;;;;5053227;28;20225;-64
2022/04/04 12:17:01;;;;;;;6.45;5.50;;;10.40;68.10;;;;;;5052700;28;20217;-64
2022/04/04 12:19:28;;;;;;;9.00;5.03;;;10.40;68.40;;;;;;5053175;28;20229;-64
2022/04/04 12:21:57;;;;;;;6.82;5.00;;;10.30;68.40;;;;;;5052615;28;20227;-64
2022/04/04 12:27:22;;;;;;;12.57;9.82;;;10.00;72.30;;;;;;4991368;28;20234;-65
2022/04/04 12:29:49;;;;;;;8.27;6.53;;;9.80;75.20;;;;;;5038416;28;20299;-65
2022/04/04 12:32:17;;;;;;;6.80;6.10;;;9.60;78.20;;;;;;5052664;28;20216;-65
2022/04/04 12:34:59;;;;;;;7.28;5.78;;;9.40;80.10;;;;;;5052590;28;20998;-64
2022/04/04 12:37:36;;;;;;;9.85;5.28;;;9.30;81.30;;;;;;5046501;28;20224;-64
2022/04/04 12:40:19;;;;;;;10.43;8.13;;;9.30;84.10;;;;;;5032874;28;20216;-65
2022/04/04 12:42:47;;;;;;;5.88;4.75;;;9.30;85.30;;;;;;5032611;28;20217;-65
2022/04/04 12:45:15;;;;;;;9.77;5.72;;;9.10;85.70;;;;;;5032811;28;20279;-65
2022/04/04 12:47:59;;;;;;;10.32;6.70;;;9.00;87.10;;;;;;5032276;28;20229;-65
2022/04/04 12:50:37;;;;;;;8.38;7.45;;;9.00;87.60;;;;;;5032112;28;20224;-64
2022/04/04 12:53:08;;;;;;;7.05;6.38;;;8.90;88.60;;;;;;5032762;28;20666;-64
2022/04/04 12:55:37;;;;;;;9.85;7.85;;;8.80;90.20;;;;;;5043773;28;20216;-64
2022/04/04 12:58:20;;;;;;;10.85;8.23;;;8.70;90.50;;;;;;5035272;28;20304;-64
2022/04/04 13:00:47;;;;;;;11.68;7.00;;;8.50;91.10;;;;;;5036882;28;20286;-64
2022/04/04 13:03:23;;;;;;;9.48;7.75;;;8.40;92.10;;;;;;5052156;28;20223;-65
2022/04/04 13:05:51;;;;;;;10.23;8.00;;;8.10;93.20;;;;;;5052413;28;20655;-65
2022/04/04 13:08:19;;;;;;;9.43;7.55;;;8.00;94.10;;;;;;5052382;28;20231;-66
2022/04/04 13:13:59;;;;;;;11.07;7.25;;;7.80;94.80;;;;;;5073647;27;20568;-66